sensor_id;sensor_type;location;lat;lon;timestamp;pressure;altitude;pressure_sealevel;temperature;humidity
19128;BME280;9696;53.686;10.094;2023-02-16T00:01:17;102045.84;;;3.00;100.00
19128;BME280;9696;53.686;10.094;2023-02-16T00:03:47;102050.13;;;3.01;100.00
19128;BME280;9696;53.686;10.094;2023-02-16T00:06:17;102052.03;;;2.96;100.00
19128;BME280;9696;53.686;10.094;2023-02-16T00:08:48;102047.44;;;3.04;100.00
19128;BME280;9696;53.686;10.094;2023-02-16T00:11:22;102054.41;;;3.02;100.00
19128;BME280;9696;53.686;10.094;2023-02-16T00:14:11;102045.84;;;3.00;100.00
19128;BME280;9696;53.686;10.094;2023-02-16T00:16:41;102041.59;;;2.97;100.00
19128;BME280;9696;53.686;10.094;2023-02-16T00:19:16;102046.00;;;2.95;100.00
19128;BME280;9696;53.686;10.094;2023-02-16T00:21:45;102042.81;;;2.87;100.00
19128;BME280;9696;53.686;10.094;2023-02-16T00:24:15;102041.09;;;2.88;100.00
19128;BME280;9696;53.686;10.094;2023-02-16T00:26:46;102034.38;;;2.80;100.00
19128;BME280;9696;53.686;10.094;2023-02-16T00:29:20;102036.91;;;2.83;100.00
19128;BME280;9696;53.686;10.094;2023-02-16T00:31:51;102031.75;;;2.82;100.00
19128;BME280;9696;53.686;10.094;2023-02-16T00:34:28;102035.22;;;2.81;100.00
19128;BME280;9696;53.686;10.094;2023-02-16T00:37:00;102029.91;;;2.85;100.00
19128;BME280;9696;53.686;10.094;2023-02-16T00:39:30;102023.53;;;2.96;100.00
19128;BME280;9696;53.686;10.094;2023-02-16T00:42:03;102022.69;;;2.95;100.00
19128;BME280;9696;53.686;10.094;2023-02-16T00:44:36;102019.19;;;2.96;100.00
19128;BME280;9696;53.686;10.094;2023-02-16T00:47:16;102030.19;;;3.03;100.00
19128;BME280;9696;53.686;10.094;2023-02-16T00:49:47;102029.22;;;3.05;100.00
19128;BME280;9696;53.686;10.094;2023-02-16T00:52:29;102024.28;;;2.99;100.00
19128;BME280;9696;53.686;10.094;2023-02-16T00:54:59;102028.13;;;2.88;100.00
19128;BME280;9696;53.686;10.094;2023-02-16T00:57:32;102019.28;;;2.93;100.00
19128;BME280;9696;53.686;10.094;2023-02-16T01:00:06;102019.88;;;3.01;100.00
19128;BME280;9696;53.686;10.094;2023-02-16T01:02:41;102023.25;;;3.03;100.00
19128;BME280;9696;53.686;10.094;2023-02-16T01:05:10;102011.94;;;3.06;100.00
19128;BME280;9696;53.686;10.094;2023-02-16T01:07:40;102019.81;;;3.03;100.00
19128;BME280;9696;53.686;10.094;2023-02-16T01:10:27;102020.28;;;2.89;100.00
19128;BME280;9696;53.686;10.094;2023-02-16T01:13:16;102015.66;;;2.99;100.00
19128;BME280;9696;53.686;10.094;2023-02-16T01:15:46;102012.63;;;3.11;100.00
19128;BME280;9696;53.686;10.094;2023-02-16T01:18:17;102007.75;;;3.02;100.00
19128;BME280;9696;53.686;10.094;2023-02-16T01:20:47;102003.47;;;3.01;100.00
19128;BME280;9696;53.686;10.094;2023-02-16T01:23:16;101998.19;;;3.04;100.00
19128;BME280;9696;53.686;10.094;2023-02-16T01:25:45;102000.88;;;3.01;100.00
19128;BME280;9696;53.686;10.094;2023-02-16T01:28:20;102000.06;;;3.00;100.00
19128;BME280;9696;53.686;10.094;2023-02-16T01:30:51;101989.63;;;3.02;100.00
19128;BME280;9696;53.686;10.094;2023-02-16T01:33:21;101988.03;;;2.98;100.00
19128;BME280;9696;53.686;10.094;2023-02-16T01:35:50;101988.72;;;3.03;100.00
19128;BME280;9696;53.686;10.094;2023-02-16T01:38:23;101983.44;;;3.06;100.00
19128;BME280;9696;53.686;10.094;2023-02-16T01:41:00;101980.06;;;3.04;100.00
19128;BME280;9696;53.686;10.094;2023-02-16T01:43:42;101979.22;;;3.03;100.00
19128;BME280;9696;53.686;10.094;2023-02-16T01:46:17;101988.34;;;3.13;100.00
19128;BME280;9696;53.686;10.094;2023-02-16T01:48:48;101995.22;;;3.14;100.00
19128;BME280;9696;53.686;10.094;2023-02-16T01:51:20;101982.22;;;3.16;100.00
19128;BME280;9696;53.686;10.094;2023-02-16T01:53:54;101992.31;;;3.23;100.00
19128;BME280;9696;53.686;10.094;2023-02-16T01:56:30;101989.66;;;3.25;100.00
19128;BME280;9696;53.686;10.094;2023-02-16T01:59:07;101986.31;;;3.45;100.00
19128;BME280;9696;53.686;10.094;2023-02-16T02:01:44;101980.25;;;3.46;100.00
19128;BME280;9696;53.686;10.094;2023-02-16T02:04:28;101981.13;;;3.45;100.00
19128;BME280;9696;53.686;10.094;2023-02-16T02:07:24;101979.56;;;3.41;100.00
19128;BME280;9696;53.686;10.094;2023-02-16T02:10:02;101979.72;;;3.36;100.00
19128;BME280;9696;53.686;10.094;2023-02-16T02:12:39;101974.63;;;3.35;100.00
19128;BME280;9696;53.686;10.094;2023-02-16T02:15:17;101983.31;;;3.32;100.00
19128;BME280;9696;53.686;10.094;2023-02-16T02:17:47;101984.97;;;3.58;100.00
19128;BME280;9696;53.686;10.094;2023-02-16T02:20:24;101983.13;;;3.38;100.00
19128;BME280;9696;53.686;10.094;2023-02-16T02:23:38;101989.38;;;3.56;100.00
19128;BME280;9696;53.686;10.094;2023-02-16T02:32:37;101973.16;;;3.51;100.00
19128;BME280;9696;53.686;10.094;2023-02-16T02:35:18;101981.88;;;3.48;100.00
19128;BME280;9696;53.686;10.094;2023-02-16T02:37:56;101970.88;;;3.42;100.00
19128;BME280;9696;53.686;10.094;2023-02-16T02:40:37;101977.06;;;3.61;100.00
19128;BME280;9696;53.686;10.094;2023-02-16T02:43:13;101966.78;;;3.59;100.00
19128;BME280;9696;53.686;10.094;2023-02-16T02:45:48;101965.56;;;3.68;100.00
19128;BME280;9696;53.686;10.094;2023-02-16T02:48:20;101975.16;;;3.66;100.00
19128;BME280;9696;53.686;10.094;2023-02-16T02:50:51;101972.00;;;3.58;100.00
19128;BME280;9696;53.686;10.094;2023-02-16T02:53:42;101966.53;;;3.65;100.00
19128;BME280;9696;53.686;10.094;2023-02-16T02:56:15;101968.44;;;3.60;100.00
19128;BME280;9696;53.686;10.094;2023-02-16T02:59:06;101967.47;;;3.86;100.00
19128;BME280;9696;53.686;10.094;2023-02-16T03:01:56;101955.81;;;3.74;100.00
19128;BME280;9696;53.686;10.094;2023-02-16T03:04:30;101950.50;;;3.77;100.00
19128;BME280;9696;53.686;10.094;2023-02-16T03:07:02;101948.19;;;3.92;100.00
19128;BME280;9696;53.686;10.094;2023-02-16T03:09:32;101947.72;;;3.82;100.00
19128;BME280;9696;53.686;10.094;2023-02-16T03:12:02;101957.00;;;3.88;100.00
19128;BME280;9696;53.686;10.094;2023-02-16T03:14:54;101950.31;;;3.82;100.00
19128;BME280;9696;53.686;10.094;2023-02-16T03:17:28;101950.13;;;3.65;100.00
19128;BME280;9696;53.686;10.094;2023-02-16T03:20:19;101946.25;;;3.53;100.00
19128;BME280;9696;53.686;10.094;2023-02-16T03:23:07;101948.31;;;3.67;100.00
19128;BME280;9696;53.686;10.094;2023-02-16T03:25:54;101948.50;;;3.62;100.00
19128;BME280;9696;53.686;10.094;2023-02-16T03:28:43;101954.88;;;3.75;100.00
19128;BME280;9696;53.686;10.094;2023-02-16T03:31:32;101964.19;;;3.81;100.00
19128;BME280;9696;53.686;10.094;2023-02-16T03:34:02;101952.28;;;3.75;100.00
19128;BME280;9696;53.686;10.094;2023-02-16T03:36:35;101953.31;;;3.71;100.00
19128;BME280;9696;53.686;10.094;2023-02-16T03:39:06;101950.50;;;3.77;100.00
19128;BME280;9696;53.686;10.094;2023-02-16T03:41:39;101945.91;;;3.84;100.00
19128;BME280;9696;53.686;10.094;2023-02-16T03:44:08;101940.66;;;3.86;100.00
19128;BME280;9696;53.686;10.094;2023-02-16T03:46:37;101939.81;;;3.85;100.00
19128;BME280;9696;53.686;10.094;2023-02-16T03:49:06;101938.03;;;3.87;100.00
19128;BME280;9696;53.686;10.094;2023-02-16T03:51:37;101930.88;;;3.92;100.00
19128;BME280;9696;53.686;10.094;2023-02-16T03:54:06;101937.75;;;3.93;100.00
19128;BME280;9696;53.686;10.094;2023-02-16T03:56:35;101931.72;;;3.93;100.00
19128;BME280;9696;53.686;10.094;2023-02-16T03:59:04;101927.75;;;4.06;100.00
19128;BME280;9696;53.686;10.094;2023-02-16T04:01:33;101926.91;;;4.05;100.00
19128;BME280;9696;53.686;10.094;2023-02-16T04:04:03;101919.09;;;4.05;100.00
19128;BME280;9696;53.686;10.094;2023-02-16T04:06:32;101919.25;;;4.02;100.00
19128;BME280;9696;53.686;10.094;2023-02-16T04:09:02;101923.34;;;3.86;100.00
19128;BME280;9696;53.686;10.094;2023-02-16T04:11:31;101911.56;;;3.99;100.00
19128;BME280;9696;53.686;10.094;2023-02-16T04:14:18;101914.09;;;4.01;100.00
19128;BME280;9696;53.686;10.094;2023-02-16T04:16:47;101919.09;;;4.05;100.00
19128;BME280;9696;53.686;10.094;2023-02-16T04:19:16;101918.53;;;3.99;100.00
19128;BME280;9696;53.686;10.094;2023-02-16T04:21:45;101917.00;;;3.93;100.00
19128;BME280;9696;53.686;10.094;2023-02-16T04:24:16;101913.59;;;3.91;100.00
19128;BME280;9696;53.686;10.094;2023-02-16T04:26:45;101919.28;;;4.01;100.00
19128;BME280;9696;53.686;10.094;2023-02-16T04:29:16;101921.03;;;4.00;100.00
19128;BME280;9696;53.686;10.094;2023-02-16T04:31:45;101924.03;;;4.11;100.00
19128;BME280;9696;53.686;10.094;2023-02-16T04:34:14;101912.03;;;4.09;100.00
19128;BME280;9696;53.686;10.094;2023-02-16T04:36:43;101913.59;;;4.13;100.00
19128;BME280;9696;53.686;10.094;2023-02-16T04:39:13;101916.47;;;4.07;100.00
19128;BME280;9696;53.686;10.094;2023-02-16T04:41:43;101910.66;;;4.00;100.00
19128;BME280;9696;53.686;10.094;2023-02-16T04:44:12;101912.22;;;4.04;100.00
19128;BME280;9696;53.686;10.094;2023-02-16T04:46:41;101915.66;;;4.05;100.00
19128;BME280;9696;53.686;10.094;2023-02-16T04:49:10;101906.31;;;4.01;100.00
19128;BME280;9696;53.686;10.094;2023-02-16T04:51:39;101905.28;;;4.05;100.00
19128;BME280;9696;53.686;10.094;2023-02-16T04:54:08;101907.94;;;4.03;100.00
19128;BME280;9696;53.686;10.094;2023-02-16T04:56:37;101900.81;;;4.08;100.00
19128;BME280;9696;53.686;10.094;2023-02-16T04:59:08;101906.91;;;4.07;100.00
19128;BME280;9696;53.686;10.094;2023-02-16T05:01:37;101911.09;;;3.90;100.00
19128;BME280;9696;53.686;10.094;2023-02-16T05:04:06;101902.41;;;3.91;100.00
19128;BME280;9696;53.686;10.094;2023-02-16T05:06:37;101898.78;;;3.95;100.00
19128;BME280;9696;53.686;10.094;2023-02-16T05:09:06;101900.09;;;4.05;100.00
19128;BME280;9696;53.686;10.094;2023-02-16T05:11:35;101902.63;;;4.06;100.00
19128;BME280;9696;53.686;10.094;2023-02-16T05:14:25;101913.31;;;3.99;100.00
19128;BME280;9696;53.686;10.094;2023-02-16T05:17:13;101897.09;;;3.94;100.00
19128;BME280;9696;53.686;10.094;2023-02-16T05:19:44;101901.16;;;3.99;100.00
19128;BME280;9696;53.686;10.094;2023-02-16T05:22:14;101902.41;;;4.11;100.00
19128;BME280;9696;53.686;10.094;2023-02-16T05:24:43;101906.06;;;4.07;100.00
19128;BME280;9696;53.686;10.094;2023-02-16T05:27:17;101909.50;;;4.07;100.00
19128;BME280;9696;53.686;10.094;2023-02-16T05:29:48;101912.56;;;3.95;100.00
19128;BME280;9696;53.686;10.094;2023-02-16T05:32:18;101908.50;;;3.90;100.00
19128;BME280;9696;53.686;10.094;2023-02-16T05:34:48;101913.50;;;3.94;100.00
19128;BME280;9696;53.686;10.094;2023-02-16T05:37:18;101914.22;;;3.76;100.00
19128;BME280;9696;53.686;10.094;2023-02-16T05:39:47;101914.88;;;3.81;100.00
19128;BME280;9696;53.686;10.094;2023-02-16T05:42:16;101920.88;;;3.83;100.00
19128;BME280;9696;53.686;10.094;2023-02-16T05:44:45;101920.75;;;3.86;100.00
19128;BME280;9696;53.686;10.094;2023-02-16T05:47:16;101917.19;;;3.89;100.00
19128;BME280;9696;53.686;10.094;2023-02-16T05:49:45;101930.59;;;3.78;100.00
19128;BME280;9696;53.686;10.094;2023-02-16T05:52:14;101929.56;;;3.82;100.00
19128;BME280;9696;53.686;10.094;2023-02-16T05:54:43;101917.63;;;3.78;100.00
19128;BME280;9696;53.686;10.094;2023-02-16T05:57:12;101915.31;;;3.92;100.00
19128;BME280;9696;53.686;10.094;2023-02-16T05:59:42;101911.63;;;3.98;100.00
19128;BME280;9696;53.686;10.094;2023-02-16T06:02:11;101908.41;;;3.91;100.00
19128;BME280;9696;53.686;10.094;2023-02-16T06:04:41;101900.13;;;4.03;100.00
19128;BME280;9696;53.686;10.094;2023-02-16T06:07:10;101901.69;;;4.07;100.00
19128;BME280;9696;53.686;10.094;2023-02-16T06:09:41;101911.19;;;4.08;100.00
19128;BME280;9696;53.686;10.094;2023-02-16T06:12:10;101908.41;;;4.13;100.00
19128;BME280;9696;53.686;10.094;2023-02-16T06:14:40;101907.56;;;4.12;100.00
19128;BME280;9696;53.686;10.094;2023-02-16T06:17:09;101917.91;;;4.14;100.00
19128;BME280;9696;53.686;10.094;2023-02-16T06:19:38;101906.25;;;4.02;100.00
19128;BME280;9696;53.686;10.094;2023-02-16T06:22:08;101911.44;;;4.02;100.00
19128;BME280;9696;53.686;10.094;2023-02-16T06:24:37;101914.81;;;4.04;100.00
19128;BME280;9696;53.686;10.094;2023-02-16T06:27:07;101913.59;;;4.13;100.00
19128;BME280;9696;53.686;10.094;2023-02-16T06:29:36;101910.41;;;4.06;100.00
19128;BME280;9696;53.686;10.094;2023-02-16T06:32:05;101903.53;;;4.05;100.00
19128;BME280;9696;53.686;10.094;2023-02-16T06:34:34;101912.63;;;4.15;100.00
19128;BME280;9696;53.686;10.094;2023-02-16T06:37:03;101906.66;;;4.13;100.00
19128;BME280;9696;53.686;10.094;2023-02-16T06:39:34;101905.44;;;4.22;100.00
19128;BME280;9696;53.686;10.094;2023-02-16T06:42:03;101919.06;;;4.07;100.00
19128;BME280;9696;53.686;10.094;2023-02-16T06:44:32;101921.53;;;4.10;100.00
19128;BME280;9696;53.686;10.094;2023-02-16T06:47:01;101915.78;;;4.02;100.00
19128;BME280;9696;53.686;10.094;2023-02-16T06:49:30;101914.44;;;4.13;100.00
19128;BME280;9696;53.686;10.094;2023-02-16T06:52:00;101914.91;;;4.23;100.00
19128;BME280;9696;53.686;10.094;2023-02-16T06:54:29;101909.47;;;4.29;100.00
19128;BME280;9696;53.686;10.094;2023-02-16T06:56:59;101898.22;;;4.28;100.00
19128;BME280;9696;53.686;10.094;2023-02-16T06:59:29;101894.59;;;4.33;100.00
19128;BME280;9696;53.686;10.094;2023-02-16T07:01:58;101893.94;;;4.48;100.00
19128;BME280;9696;53.686;10.094;2023-02-16T07:04:27;101896.53;;;4.48;100.00
19128;BME280;9696;53.686;10.094;2023-02-16T07:06:56;101887.72;;;4.52;100.00
19128;BME280;9696;53.686;10.094;2023-02-16T07:09:26;101898.63;;;4.60;100.00
19128;BME280;9696;53.686;10.094;2023-02-16T07:11:55;101893.88;;;4.69;100.00
19128;BME280;9696;53.686;10.094;2023-02-16T07:14:25;101898.38;;;4.66;100.00
19128;BME280;9696;53.686;10.094;2023-02-16T07:16:54;101887.97;;;4.66;100.00
19128;BME280;9696;53.686;10.094;2023-02-16T07:19:26;101891.81;;;4.78;100.00
19128;BME280;9696;53.686;10.094;2023-02-16T07:21:57;101892.16;;;4.89;100.00
19128;BME280;9696;53.686;10.094;2023-02-16T07:24:26;101887.53;;;4.95;100.00
19128;BME280;9696;53.686;10.094;2023-02-16T07:26:55;101884.09;;;4.95;100.00
19128;BME280;9696;53.686;10.094;2023-02-16T07:29:26;101896.22;;;4.94;100.00
19128;BME280;9696;53.686;10.094;2023-02-16T07:31:55;101905.72;;;4.95;100.00
19128;BME280;9696;53.686;10.094;2023-02-16T07:34:25;101903.44;;;5.08;100.00
19128;BME280;9696;53.686;10.094;2023-02-16T07:36:55;101899.94;;;5.09;100.00
19128;BME280;9696;53.686;10.094;2023-02-16T07:39:24;101901.13;;;5.20;100.00
19128;BME280;9696;53.686;10.094;2023-02-16T07:41:55;101909.06;;;5.17;100.00
19128;BME280;9696;53.686;10.094;2023-02-16T07:44:27;101895.72;;;5.25;100.00
19128;BME280;9696;53.686;10.094;2023-02-16T07:46:56;101891.13;;;5.30;100.00
19128;BME280;9696;53.686;10.094;2023-02-16T07:49:25;101888.88;;;5.41;100.00
19128;BME280;9696;53.686;10.094;2023-02-16T07:51:54;101889.72;;;5.42;100.00
19128;BME280;9696;53.686;10.094;2023-02-16T07:54:23;101890.91;;;5.53;100.00
19128;BME280;9696;53.686;10.094;2023-02-16T07:56:53;101896.00;;;5.56;100.00
19128;BME280;9696;53.686;10.094;2023-02-16T07:59:22;101888.56;;;5.66;100.00
19128;BME280;9696;53.686;10.094;2023-02-16T08:01:52;101896.31;;;5.67;100.00
19128;BME280;9696;53.686;10.094;2023-02-16T08:04:22;101903.28;;;5.67;100.00
19128;BME280;9696;53.686;10.094;2023-02-16T08:06:51;101907.13;;;5.77;100.00
19128;BME280;9696;53.686;10.094;2023-02-16T08:09:20;101903.34;;;5.84;100.00
19128;BME280;9696;53.686;10.094;2023-02-16T08:11:49;101919.03;;;5.83;100.00
19128;BME280;9696;53.686;10.094;2023-02-16T08:14:18;101907.50;;;5.88;100.00
19128;BME280;9696;53.686;10.094;2023-02-16T08:16:47;101903.00;;;5.92;100.00
19128;BME280;9696;53.686;10.094;2023-02-16T08:19:23;101893.53;;;6.08;100.00
19128;BME280;9696;53.686;10.094;2023-02-16T08:21:52;101890.59;;;6.14;100.00
19128;BME280;9696;53.686;10.094;2023-02-16T08:24:21;101900.41;;;6.09;100.00
19128;BME280;9696;53.686;10.094;2023-02-16T08:26:51;101891.50;;;6.13;100.00
19128;BME280;9696;53.686;10.094;2023-02-16T08:29:23;101887.78;;;6.19;100.00
19128;BME280;9696;53.686;10.094;2023-02-16T08:31:52;101904.56;;;6.30;100.00
19128;BME280;9696;53.686;10.094;2023-02-16T08:34:24;101891.44;;;6.14;100.00
19128;BME280;9696;53.686;10.094;2023-02-16T08:36:55;101904.16;;;6.21;100.00
19128;BME280;9696;53.686;10.094;2023-02-16T08:39:27;101902.88;;;6.46;100.00
19128;BME280;9696;53.686;10.094;2023-02-16T08:41:59;101889.16;;;6.43;100.00
19128;BME280;9696;53.686;10.094;2023-02-16T08:44:29;101896.34;;;6.38;100.00
19128;BME280;9696;53.686;10.094;2023-02-16T08:46:59;101894.44;;;6.41;100.00
19128;BME280;9696;53.686;10.094;2023-02-16T08:49:29;101890.75;;;6.62;100.00
19128;BME280;9696;53.686;10.094;2023-02-16T08:51:59;101893.47;;;7.09;100.00
19128;BME280;9696;53.686;10.094;2023-02-16T08:54:29;101902.31;;;6.74;100.00
19128;BME280;9696;53.686;10.094;2023-02-16T08:57:00;101894.78;;;6.68;100.00
19128;BME280;9696;53.686;10.094;2023-02-16T08:59:31;101890.00;;;6.93;100.00
19128;BME280;9696;53.686;10.094;2023-02-16T09:02:01;101897.78;;;6.78;100.00
19128;BME280;9696;53.686;10.094;2023-02-16T09:04:32;101890.16;;;6.90;100.00
19128;BME280;9696;53.686;10.094;2023-02-16T09:07:01;101887.88;;;7.00;100.00
19128;BME280;9696;53.686;10.094;2023-02-16T09:09:31;101902.88;;;7.12;100.00
19128;BME280;9696;53.686;10.094;2023-02-16T09:12:00;101903.78;;;6.95;100.00
19128;BME280;9696;53.686;10.094;2023-02-16T09:14:29;101900.59;;;6.90;100.00
19128;BME280;9696;53.686;10.094;2023-02-16T09:16:58;101907.00;;;7.00;100.00
19128;BME280;9696;53.686;10.094;2023-02-16T09:19:27;101909.00;;;6.95;100.00
19128;BME280;9696;53.686;10.094;2023-02-16T09:21:58;101908.19;;;6.95;100.00
19128;BME280;9696;53.686;10.094;2023-02-16T09:24:27;101906.28;;;7.14;100.00
19128;BME280;9696;53.686;10.094;2023-02-16T09:26:56;101908.63;;;7.03;100.00
19128;BME280;9696;53.686;10.094;2023-02-16T09:29:25;101908.75;;;7.00;100.00
19128;BME280;9696;53.686;10.094;2023-02-16T09:31:54;101893.72;;;7.05;100.00
19128;BME280;9696;53.686;10.094;2023-02-16T09:34:23;101911.66;;;7.11;100.00
19128;BME280;9696;53.686;10.094;2023-02-16T09:36:54;101907.44;;;7.08;100.00
19128;BME280;9696;53.686;10.094;2023-02-16T09:39:26;101914.31;;;7.27;100.00
19128;BME280;9696;53.686;10.094;2023-02-16T09:42:10;101913.94;;;7.17;100.00
19128;BME280;9696;53.686;10.094;2023-02-16T09:44:49;101912.84;;;7.21;100.00
19128;BME280;9696;53.686;10.094;2023-02-16T09:47:23;101921.69;;;7.19;100.00
19128;BME280;9696;53.686;10.094;2023-02-16T09:49:57;101920.09;;;7.32;100.00
19128;BME280;9696;53.686;10.094;2023-02-16T09:52:34;101920.19;;;7.30;100.00
19128;BME280;9696;53.686;10.094;2023-02-16T09:55:10;101920.53;;;7.40;100.00
19128;BME280;9696;53.686;10.094;2023-02-16T09:58:02;101922.97;;;7.43;100.00
19128;BME280;9696;53.686;10.094;2023-02-16T10:00:43;101925.66;;;7.41;100.00
19128;BME280;9696;53.686;10.094;2023-02-16T10:03:29;101924.56;;;7.45;100.00
19128;BME280;9696;53.686;10.094;2023-02-16T10:06:09;101921.88;;;7.78;100.00
19128;BME280;9696;53.686;10.094;2023-02-16T10:08:45;101935.78;;;7.63;100.00
19128;BME280;9696;53.686;10.094;2023-02-16T10:11:23;101940.56;;;7.71;100.00
19128;BME280;9696;53.686;10.094;2023-02-16T10:14:22;101919.56;;;8.03;100.00
19128;BME280;9696;53.686;10.094;2023-02-16T10:16:56;101925.44;;;7.77;100.00
19128;BME280;9696;53.686;10.094;2023-02-16T10:19:34;101926.16;;;7.79;100.00
19128;BME280;9696;53.686;10.094;2023-02-16T10:22:10;101938.06;;;7.38;100.00
19128;BME280;9696;53.686;10.094;2023-02-16T10:24:58;101937.63;;;7.45;100.00
19128;BME280;9696;53.686;10.094;2023-02-16T10:27:39;101933.50;;;7.57;100.00
19128;BME280;9696;53.686;10.094;2023-02-16T10:30:14;101923.66;;;7.46;100.00
19128;BME280;9696;53.686;10.094;2023-02-16T10:32:53;101934.00;;;7.48;100.00
19128;BME280;9696;53.686;10.094;2023-02-16T10:35:31;101928.03;;;7.62;100.00
19128;BME280;9696;53.686;10.094;2023-02-16T10:38:11;101926.78;;;7.53;100.00
19128;BME280;9696;53.686;10.094;2023-02-16T10:40:49;101931.50;;;7.62;100.00
19128;BME280;9696;53.686;10.094;2023-02-16T10:43:29;101932.41;;;7.61;100.00
19128;BME280;9696;53.686;10.094;2023-02-16T10:46:02;101930.41;;;7.66;100.00
19128;BME280;9696;53.686;10.094;2023-02-16T10:48:32;101929.81;;;7.61;100.00
19128;BME280;9696;53.686;10.094;2023-02-16T10:51:04;101932.06;;;7.67;100.00
19128;BME280;9696;53.686;10.094;2023-02-16T10:53:39;101933.56;;;7.87;100.00
19128;BME280;9696;53.686;10.094;2023-02-16T10:56:44;101930.88;;;7.88;100.00
19128;BME280;9696;53.686;10.094;2023-02-16T10:59:19;101920.28;;;7.76;100.00
19128;BME280;9696;53.686;10.094;2023-02-16T11:01:50;101917.09;;;8.16;100.00
19128;BME280;9696;53.686;10.094;2023-02-16T11:04:37;101921.34;;;8.03;100.00
19128;BME280;9696;53.686;10.094;2023-02-16T11:07:09;101920.16;;;8.09;100.00
19128;BME280;9696;53.686;10.094;2023-02-16T11:09:41;101924.84;;;8.33;100.00
19128;BME280;9696;53.686;10.094;2023-02-16T11:12:27;101920.56;;;8.17;100.00
19128;BME280;9696;53.686;10.094;2023-02-16T11:15:02;101913.16;;;8.09;100.00
19128;BME280;9696;53.686;10.094;2023-02-16T11:17:47;101919.88;;;8.29;100.00
19128;BME280;9696;53.686;10.094;2023-02-16T11:20:27;101920.13;;;8.24;100.00
19128;BME280;9696;53.686;10.094;2023-02-16T11:23:13;101918.84;;;8.31;100.00
19128;BME280;9696;53.686;10.094;2023-02-16T11:25:54;101917.31;;;8.43;100.00
19128;BME280;9696;53.686;10.094;2023-02-16T11:28:30;101914.16;;;8.52;100.00
19128;BME280;9696;53.686;10.094;2023-02-16T11:31:11;101915.50;;;8.29;100.00
19128;BME280;9696;53.686;10.094;2023-02-16T11:33:42;101904.03;;;8.46;100.00
19128;BME280;9696;53.686;10.094;2023-02-16T11:36:29;101909.13;;;8.49;100.00
19128;BME280;9696;53.686;10.094;2023-02-16T11:39:02;101904.34;;;8.56;100.00
19128;BME280;9696;53.686;10.094;2023-02-16T11:41:34;101908.09;;;8.66;100.00
19128;BME280;9696;53.686;10.094;2023-02-16T11:44:03;101908.72;;;8.41;100.00
19128;BME280;9696;53.686;10.094;2023-02-16T11:46:40;101902.50;;;8.72;100.00
19128;BME280;9696;53.686;10.094;2023-02-16T11:49:29;101907.56;;;8.61;100.00
19128;BME280;9696;53.686;10.094;2023-02-16T11:52:00;101920.72;;;8.59;100.00
19128;BME280;9696;53.686;10.094;2023-02-16T11:54:30;101905.31;;;8.69;100.00
19128;BME280;9696;53.686;10.094;2023-02-16T11:57:04;101907.16;;;8.52;100.00
19128;BME280;9696;53.686;10.094;2023-02-16T11:59:38;101897.16;;;8.73;100.00
19128;BME280;9696;53.686;10.094;2023-02-16T12:02:41;101906.97;;;8.70;100.00
19128;BME280;9696;53.686;10.094;2023-02-16T12:05:24;101902.84;;;8.51;100.00
19128;BME280;9696;53.686;10.094;2023-02-16T12:08:13;101901.94;;;8.67;100.00
19128;BME280;9696;53.686;10.094;2023-02-16T12:11:00;101896.50;;;8.56;100.00
19128;BME280;9696;53.686;10.094;2023-02-16T12:13:40;101890.44;;;8.55;100.00
19128;BME280;9696;53.686;10.094;2023-02-16T12:16:23;101895.78;;;8.68;100.00
19128;BME280;9696;53.686;10.094;2023-02-16T12:19:07;101897.31;;;8.42;100.00
19128;BME280;9696;53.686;10.094;2023-02-16T12:21:42;101898.06;;;8.44;100.00
19128;BME280;9696;53.686;10.094;2023-02-16T12:24:25;101890.03;;;8.47;100.00
19128;BME280;9696;53.686;10.094;2023-02-16T12:26:59;101894.63;;;8.43;100.00
19128;BME280;9696;53.686;10.094;2023-02-16T12:29:38;101888.22;;;8.63;100.00
19128;BME280;9696;53.686;10.094;2023-02-16T12:32:21;101886.63;;;8.75;100.00
19128;BME280;9696;53.686;10.094;2023-02-16T12:35:12;101885.22;;;8.69;100.00
19128;BME280;9696;53.686;10.094;2023-02-16T12:37:47;101881.78;;;8.83;100.00
19128;BME280;9696;53.686;10.094;2023-02-16T12:40:28;101886.72;;;8.59;100.00
19128;BME280;9696;53.686;10.094;2023-02-16T12:43:09;101879.53;;;8.77;100.00
19128;BME280;9696;53.686;10.094;2023-02-16T12:45:45;101876.25;;;8.59;100.00
19128;BME280;9696;53.686;10.094;2023-02-16T12:48:25;101874.47;;;8.60;100.00
19128;BME280;9696;53.686;10.094;2023-02-16T12:51:02;101869.97;;;8.47;100.00
19128;BME280;9696;53.686;10.094;2023-02-16T12:53:40;101874.75;;;8.69;100.00
19128;BME280;9696;53.686;10.094;2023-02-16T12:56:15;101861.56;;;8.42;100.00
19128;BME280;9696;53.686;10.094;2023-02-16T12:58:48;101872.28;;;8.38;100.00
19128;BME280;9696;53.686;10.094;2023-02-16T13:01:24;101872.94;;;8.41;100.00
19128;BME280;9696;53.686;10.094;2023-02-16T13:03:57;101872.50;;;8.49;100.00
19128;BME280;9696;53.686;10.094;2023-02-16T13:06:31;101868.22;;;8.62;100.00
19128;BME280;9696;53.686;10.094;2023-02-16T13:09:12;101866.03;;;8.40;100.00
19128;BME280;9696;53.686;10.094;2023-02-16T13:11:48;101863.25;;;8.43;100.00
19128;BME280;9696;53.686;10.094;2023-02-16T13:14:22;101857.44;;;8.38;100.00
19128;BME280;9696;53.686;10.094;2023-02-16T13:16:54;101856.72;;;8.50;100.00
19128;BME280;9696;53.686;10.094;2023-02-16T13:19:24;101850.25;;;8.42;100.00
19128;BME280;9696;53.686;10.094;2023-02-16T13:22:20;101840.81;;;8.39;100.00
19128;BME280;9696;53.686;10.094;2023-02-16T13:25:01;101831.25;;;8.68;100.00
19128;BME280;9696;53.686;10.094;2023-02-16T13:27:36;101836.28;;;8.57;100.00
19128;BME280;9696;53.686;10.094;2023-02-16T13:30:35;101835.25;;;8.16;100.00
19128;BME280;9696;53.686;10.094;2023-02-16T13:33:24;101830.00;;;8.16;100.00